createdAt,value
2018-09-06T00:01:32.045Z,78.51
2018-09-06T00:04:06.910Z,78.75
2018-09-06T00:06:42.089Z,79.37
2018-09-06T00:09:16.913Z,79.20
2018-09-06T00:11:51.671Z,79.86
2018-09-06T00:14:26.369Z,79.43
2018-09-06T00:17:02.299Z,79.15
2018-09-06T00:19:37.462Z,79.55
2018-09-06T00:22:12.509Z,80.38
2018-09-06T00:24:47.216Z,80.18
2018-09-06T00:27:22.126Z,80.90
2018-09-06T00:29:57.302Z,80.35
2018-09-06T00:32:32.036Z,82.95
2018-09-06T00:35:06.810Z,83.31
2018-09-06T00:37:41.722Z,83.41
2018-09-06T00:40:17.656Z,83.23
2018-09-06T00:42:52.373Z,82.65
2018-09-06T00:45:27.421Z,82.46
2018-09-06T00:48:02.133Z,83.79
2018-09-06T00:50:38.962Z,84.28
2018-09-06T00:53:13.965Z,82.77
2018-09-06T00:55:48.835Z,82.32
2018-09-06T00:58:23.611Z,82.26
2018-09-06T01:00:58.398Z,81.94
2018-09-06T01:03:33.620Z,82.23
2018-09-06T01:06:08.524Z,82.75
2018-09-06T01:08:43.273Z,83.14
2018-09-06T01:11:18.112Z,83.51
2018-09-06T01:13:53.065Z,82.33
2018-09-06T01:16:28.036Z,82.62
2018-09-06T01:19:06.403Z,83.03
2018-09-06T01:21:41.878Z,83.18
2018-09-06T01:24:16.903Z,83.20
2018-09-06T01:26:51.715Z,82.96
2018-09-06T01:29:26.471Z,83.11
2018-09-06T01:32:01.871Z,83.60
2018-09-06T01:34:36.952Z,82.66
2018-09-06T01:37:11.581Z,82.48
2018-09-06T01:39:46.648Z,81.17
2018-09-06T01:42:21.518Z,80.51
2018-09-06T01:44:56.193Z,81.40
2018-09-06T01:47:31.281Z,84.54
2018-09-06T01:50:06.131Z,84.15
2018-09-06T01:52:41.098Z,83.56
2018-09-06T01:55:16.130Z,83.12
2018-09-06T01:57:50.792Z,83.96
2018-09-06T02:00:27.212Z,83.64
2018-09-06T02:03:02.965Z,82.64
2018-09-06T02:05:38.767Z,83.71
2018-09-06T02:08:14.480Z,84.91
2018-09-06T02:10:50.234Z,84.82
2018-09-06T02:13:26.397Z,83.50
2018-09-06T02:16:02.065Z,81.85
2018-09-06T02:18:37.870Z,81.71
2018-09-06T02:21:13.661Z,81.64
2018-09-06T02:23:49.379Z,81.43
2018-09-06T02:26:25.144Z,79.93
2018-09-06T02:29:01.607Z,80.16
2018-09-06T02:31:37.427Z,81.18
2018-09-06T02:34:13.191Z,82.58
2018-09-06T02:36:48.965Z,83.41
2018-09-06T02:39:24.698Z,83.75
2018-09-06T02:42:00.681Z,85.15
2018-09-06T02:44:36.409Z,85.63
2018-09-06T02:47:12.026Z,84.95
2018-09-06T02:49:53.355Z,85.24
2018-09-06T02:52:29.497Z,85.34
2018-09-06T02:55:05.953Z,85.64
2018-09-06T02:57:42.091Z,87.32
2018-09-06T03:00:22.389Z,85.67
2018-09-06T03:02:58.219Z,84.09
2018-09-06T03:05:34.731Z,84.06
2018-09-06T03:08:10.774Z,86.53
2018-09-06T03:10:48.755Z,87.75
2018-09-06T03:13:24.649Z,85.89
2018-09-06T03:16:01.066Z,84.60
2018-09-06T03:18:38.121Z,83.69
2018-09-06T03:21:14.311Z,83.63
2018-09-06T03:23:50.173Z,84.75
2018-09-06T03:26:26.087Z,84.60
2018-09-06T03:29:02.843Z,85.28
2018-09-06T03:31:38.798Z,84.34
2018-09-06T03:34:14.952Z,85.93
2018-09-06T03:36:50.649Z,86.38
2018-09-06T03:39:27.699Z,85.13
2018-09-06T03:42:04.221Z,85.39
2018-09-06T03:44:40.019Z,84.24
2018-09-06T03:47:15.864Z,83.82
2018-09-06T03:49:51.591Z,84.09
2018-09-06T03:52:27.728Z,83.57
2018-09-06T03:55:03.533Z,83.77
2018-09-06T03:57:39.781Z,83.58
2018-09-06T04:00:19.041Z,83.72
2018-09-06T04:02:55.039Z,83.85
2018-09-06T04:05:30.692Z,83.56
2018-09-06T04:08:06.574Z,82.94
2018-09-06T04:10:43.047Z,83.17
2018-09-06T04:13:18.650Z,83.43
2018-09-06T04:15:54.552Z,84.02
2018-09-06T04:18:30.538Z,85.11
2018-09-06T04:21:06.503Z,85.16
2018-09-06T04:23:42.333Z,85.94
2018-09-06T04:26:18.326Z,85.83
2018-09-06T04:28:54.333Z,85.07
2018-09-06T04:31:30.173Z,84.14
2018-09-06T04:34:05.973Z,83.45
2018-09-06T04:36:41.924Z,85.31
2018-09-06T04:39:17.753Z,84.63
2018-09-06T04:41:53.601Z,86.17
2018-09-06T04:44:29.442Z,87.84
2018-09-06T04:47:05.474Z,87.71
2018-09-06T04:49:41.217Z,87.16
2018-09-06T04:52:17.103Z,87.01
2018-09-06T04:54:53.350Z,87.68
2018-09-06T04:57:29.140Z,87.18
2018-09-06T05:00:04.970Z,85.23
2018-09-06T05:02:40.899Z,82.33
2018-09-06T05:05:16.751Z,80.01
2018-09-06T05:07:52.625Z,77.57
2018-09-06T05:10:28.785Z,75.71
2018-09-06T05:13:04.803Z,74.76
2018-09-06T05:15:40.514Z,71.81
2018-09-06T05:18:16.601Z,73.13
2018-09-06T05:20:52.738Z,73.94
2018-09-06T05:23:28.377Z,74.45
2018-09-06T05:26:03.998Z,74.60
2018-09-06T05:28:39.830Z,73.56
2018-09-06T05:31:16.055Z,74.21
2018-09-06T05:33:52.815Z,74.24
2018-09-06T05:36:28.659Z,73.18
2018-09-06T05:39:06.977Z,73.46
2018-09-06T05:41:43.068Z,73.55
2018-09-06T05:44:18.760Z,73.12
2018-09-06T05:46:54.644Z,72.32
2018-09-06T05:49:30.553Z,71.23
2018-09-06T05:52:06.417Z,72.52
2018-09-06T05:54:43.481Z,71.64
2018-09-06T05:57:19.261Z,70.98
2018-09-06T05:59:55.705Z,71.04
2018-09-06T06:02:31.716Z,68.37
2018-09-06T06:05:07.744Z,69.39
2018-09-06T06:07:54.637Z,67.89
2018-09-06T06:10:30.719Z,66.71
2018-09-06T06:13:06.587Z,67.25
2018-09-06T06:15:42.386Z,67.20
2018-09-06T06:18:18.645Z,67.68
2018-09-06T06:20:55.116Z,68.07
2018-09-06T06:23:31.436Z,66.09
2018-09-06T06:26:07.777Z,66.29
2018-09-06T06:28:44.317Z,65.30
2018-09-06T06:31:20.026Z,64.07
2018-09-06T06:33:55.892Z,63.47
2018-09-06T06:36:31.692Z,63.29
2018-09-06T06:39:10.815Z,62.36
2018-09-06T06:41:41.996Z,61.28
2018-09-06T06:44:12.941Z,61.04
2018-09-06T06:46:44.956Z,60.85
2018-09-06T06:49:15.921Z,59.75
2018-09-06T06:51:47.666Z,59.91
2018-09-06T06:54:18.587Z,59.81
2018-09-06T06:56:49.442Z,58.62
2018-09-06T06:59:20.857Z,56.75
2018-09-06T07:01:51.699Z,58.06
2018-09-06T07:04:22.750Z,57.32
2018-09-06T07:06:53.973Z,58.27
2018-09-06T07:09:24.879Z,57.73
2018-09-06T07:11:55.844Z,57.05
2018-09-06T07:14:26.866Z,57.31
2018-09-06T07:16:57.983Z,56.89
2018-09-06T07:19:28.918Z,56.59
2018-09-06T07:22:00.587Z,56.99
2018-09-06T07:24:32.126Z,56.70
2018-09-06T07:27:02.905Z,56.43
2018-09-06T07:29:33.666Z,54.85
2018-09-06T07:32:05.275Z,54.96
2018-09-06T07:34:36.387Z,54.70
2018-09-06T07:37:07.242Z,55.08
2018-09-06T07:39:38.451Z,55.25
2018-09-06T07:42:09.522Z,54.83
2018-09-06T07:44:40.923Z,54.37
2018-09-06T07:47:11.790Z,53.23
2018-09-06T07:49:42.581Z,53.06
2018-09-06T07:52:13.514Z,52.09
2018-09-06T07:54:48.719Z,51.02
2018-09-06T07:57:19.544Z,51.56
2018-09-06T07:59:51.810Z,51.52
2018-09-06T08:02:22.621Z,50.69
2018-09-06T08:04:53.395Z,51.70
2018-09-06T08:07:24.257Z,50.49
2018-09-06T08:09:59.051Z,49.59
2018-09-06T08:12:30.537Z,49.13
2018-09-06T08:16:25.368Z,49.03
2018-09-06T08:18:57.343Z,46.67
2018-09-06T08:21:28.290Z,46.02
2018-09-06T08:23:59.513Z,45.56
2018-09-06T08:26:30.266Z,44.27
2018-09-06T08:29:01.191Z,42.85
2018-09-06T08:31:32.046Z,43.96
2018-09-06T08:34:02.965Z,44.24
2018-09-06T08:36:33.740Z,43.90
2018-09-06T08:39:05.467Z,43.77
2018-09-06T08:41:36.912Z,43.11
2018-09-06T08:44:07.712Z,43.20
2018-09-06T08:46:41.996Z,42.67
2018-09-06T08:49:12.815Z,41.97
2018-09-06T08:51:43.701Z,44.80
2018-09-06T08:54:17.123Z,44.52
2018-09-06T08:56:47.881Z,43.19
2018-09-06T08:59:19.142Z,42.64
2018-09-06T09:01:50.223Z,42.67
2018-09-06T09:04:21.045Z,43.21
2018-09-06T09:06:52.990Z,42.14
2018-09-06T09:09:23.827Z,42.13
2018-09-06T09:11:54.704Z,43.86
2018-09-06T09:14:25.506Z,42.02
2018-09-06T09:16:56.661Z,42.39
2018-09-06T09:19:28.478Z,43.28
2018-09-06T09:21:59.536Z,42.17
2018-09-06T09:24:30.938Z,42.08
2018-09-06T09:27:01.825Z,42.09
2018-09-06T09:29:32.933Z,41.58
2018-09-06T09:32:03.976Z,42.68
2018-09-06T09:34:34.914Z,41.58
2018-09-06T09:37:06.076Z,41.49
2018-09-06T09:39:37.054Z,41.22
2018-09-06T09:42:07.829Z,41.12
2018-09-06T09:44:39.451Z,39.65
2018-09-06T09:49:40.522Z,39.31
2018-09-06T09:52:11.840Z,39.12
2018-09-06T09:54:43.072Z,39.50
2018-09-06T09:57:15.541Z,38.35
2018-09-06T09:59:46.389Z,39.37
2018-09-06T10:02:23.174Z,38.03
2018-09-06T10:05:01.461Z,38.30
2018-09-06T10:09:48.660Z,38.56
2018-09-06T10:12:29.995Z,38.30
2018-09-06T10:18:00.632Z,37.56
2018-09-06T10:20:31.964Z,38.16
2018-09-06T10:23:03.766Z,38.30
2018-09-06T10:25:36.048Z,36.95
2018-09-06T10:28:06.981Z,37.54
2018-09-06T10:30:37.754Z,36.50
2018-09-06T10:33:09.291Z,36.99
2018-09-06T10:35:40.116Z,37.34
2018-09-06T10:38:11.399Z,38.45
2018-09-06T10:40:42.697Z,38.01
2018-09-06T10:43:14.675Z,38.66
2018-09-06T10:45:45.485Z,38.25
2018-09-06T10:48:17.095Z,37.49
2018-09-06T10:50:47.966Z,36.05
2018-09-06T10:53:20.535Z,35.98
2018-09-06T10:55:52.682Z,35.74
2018-09-06T10:58:23.693Z,37.23
2018-09-06T11:00:59.649Z,37.21
2018-09-06T11:03:32.659Z,36.52
2018-09-06T11:06:04.972Z,35.66
2018-09-06T11:08:35.960Z,35.05
2018-09-06T11:11:07.048Z,35.45
2018-09-06T11:13:39.016Z,35.97
2018-09-06T11:16:11.396Z,35.35
2018-09-06T11:18:45.859Z,35.91
2018-09-06T11:21:17.979Z,36.04
2018-09-06T11:23:50.013Z,36.55
2018-09-06T11:26:21.396Z,36.07
2018-09-06T11:28:52.212Z,34.45
2018-09-06T11:31:22.984Z,34.12
2018-09-06T11:33:53.863Z,35.37
2018-09-06T11:36:24.624Z,33.43
2018-09-06T11:38:55.515Z,34.46
2018-09-06T11:41:26.315Z,34.03
2018-09-06T11:43:57.145Z,33.95
2018-09-06T11:46:28.384Z,31.38
2018-09-06T11:48:59.493Z,34.04
2018-09-06T11:51:30.846Z,33.42
2018-09-06T11:54:01.734Z,34.56
2018-09-06T11:56:32.527Z,33.29
2018-09-06T11:59:03.403Z,31.68
2018-09-06T12:01:34.688Z,33.02
2018-09-06T12:04:05.676Z,34.16
2018-09-06T12:06:36.458Z,34.46
2018-09-06T12:09:08.008Z,32.25
2018-09-06T12:11:39.401Z,32.19
2018-09-06T12:14:10.309Z,33.14
2018-09-06T12:16:41.745Z,31.99
2018-09-06T12:19:12.697Z,31.68
2018-09-06T12:21:43.483Z,32.23
2018-09-06T12:24:14.514Z,32.13
2018-09-06T12:26:45.400Z,31.63
2018-09-06T12:29:16.226Z,32.95
2018-09-06T12:31:47.026Z,33.17
2018-09-06T12:34:17.905Z,33.67
2018-09-06T12:36:49.940Z,33.46
2018-09-06T12:39:20.988Z,32.43
2018-09-06T12:41:51.967Z,32.23
2018-09-06T12:44:22.825Z,31.22
2018-09-06T12:46:54.442Z,34.69
2018-09-06T12:49:25.364Z,34.86
2018-09-06T12:51:56.282Z,35.12
2018-09-06T12:54:27.172Z,35.84
2018-09-06T12:56:58.677Z,35.28
2018-09-06T12:59:29.989Z,35.90
2018-09-06T13:02:00.803Z,35.53
2018-09-06T13:04:31.662Z,37.20
2018-09-06T13:07:03.244Z,37.35
2018-09-06T13:09:34.181Z,37.88
2018-09-06T13:12:05.913Z,38.84
2018-09-06T13:14:36.989Z,40.17
2018-09-06T13:17:07.774Z,39.44
2018-09-06T13:19:38.509Z,39.70
2018-09-06T13:22:10.270Z,40.50
2018-09-06T13:24:41.314Z,40.34
2018-09-06T13:27:14.404Z,40.04
2018-09-06T13:29:45.314Z,40.18
2018-09-06T13:32:16.195Z,39.88
2018-09-06T13:34:56.425Z,38.93
2018-09-06T13:37:28.109Z,37.37
2018-09-06T13:39:58.796Z,35.51
2018-09-06T13:42:29.954Z,35.42
2018-09-06T13:45:01.957Z,35.05
2018-09-06T13:47:33.057Z,35.07
2018-09-06T13:50:04.136Z,34.55
2018-09-06T13:52:34.908Z,34.21
2018-09-06T13:55:05.715Z,33.81
2018-09-06T13:57:36.412Z,32.09
2018-09-06T14:00:07.191Z,30.40
2018-09-06T14:02:37.977Z,28.83
2018-09-06T14:05:08.787Z,28.66
2018-09-06T14:07:39.628Z,27.68
2018-09-06T14:10:10.427Z,30.16
2018-09-06T14:12:41.333Z,30.21
2018-09-06T14:15:12.004Z,29.67
2018-09-06T14:17:43.013Z,29.19
2018-09-06T14:20:13.724Z,29.44
2018-09-06T14:22:44.457Z,28.64
2018-09-06T14:25:15.208Z,27.54
2018-09-06T14:27:45.885Z,27.71
2018-09-06T14:30:16.581Z,27.92
2018-09-06T14:32:47.534Z,26.66
2018-09-06T14:35:18.408Z,26.99
2018-09-06T14:37:49.099Z,27.41
2018-09-06T14:40:20.025Z,27.96
2018-09-06T14:42:50.860Z,27.03
2018-09-06T14:45:21.712Z,29.74
2018-09-06T14:47:52.516Z,28.08
2018-09-06T14:50:23.537Z,29.36
2018-09-06T14:52:54.392Z,28.64
2018-09-06T14:55:25.707Z,29.33
2018-09-06T14:57:56.429Z,32.04
2018-09-06T15:00:27.578Z,32.85
2018-09-06T15:02:58.292Z,34.67
2018-09-06T15:05:29.415Z,36.31
2018-09-06T15:08:01.169Z,36.99
2018-09-06T15:10:32.117Z,37.06
2018-09-06T15:13:02.891Z,37.51
2018-09-06T15:15:34.324Z,39.00
2018-09-06T15:18:05.064Z,36.31
2018-09-06T15:22:00.598Z,36.44
2018-09-06T15:24:31.327Z,37.67
2018-09-06T15:27:02.013Z,36.87
2018-09-06T15:29:32.770Z,37.37
2018-09-06T15:32:03.439Z,37.13
2018-09-06T15:34:34.230Z,37.09
2018-09-06T15:37:05.149Z,37.37
2018-09-06T15:39:35.886Z,37.03
2018-09-06T15:42:06.804Z,37.45
2018-09-06T15:44:37.478Z,37.84
2018-09-06T15:47:08.112Z,38.26
2018-09-06T15:49:50.919Z,38.76
2018-09-06T15:52:22.156Z,39.55
2018-09-06T15:54:53.661Z,39.62
2018-09-06T15:57:24.318Z,39.82
2018-09-06T15:59:55.348Z,39.87
2018-09-06T16:02:26.244Z,40.22
2018-09-06T16:04:57.026Z,40.50
2018-09-06T16:07:27.720Z,41.07
2018-09-06T16:09:58.993Z,40.95
2018-09-06T16:12:29.819Z,41.26
2018-09-06T16:15:00.813Z,41.93
2018-09-06T16:17:31.533Z,41.92
2018-09-06T16:20:02.388Z,41.56
2018-09-06T16:22:33.252Z,42.27
2018-09-06T16:25:04.068Z,42.69
2018-09-06T16:27:35.108Z,42.39
2018-09-06T16:30:06.570Z,42.53
2018-09-06T16:32:37.473Z,43.30
2018-09-06T16:35:09.026Z,43.40
2018-09-06T16:37:39.715Z,43.38
2018-09-06T16:40:10.512Z,43.43
2018-09-06T16:42:41.248Z,43.49
2018-09-06T16:45:12.175Z,43.20
2018-09-06T16:47:42.875Z,43.01
2018-09-06T16:50:14.388Z,43.51
2018-09-06T16:52:45.036Z,43.63
2018-09-06T16:55:15.829Z,43.66
2018-09-06T16:57:46.491Z,43.99
2018-09-06T17:00:17.462Z,44.05
2018-09-06T17:02:48.344Z,44.35
2018-09-06T17:05:19.154Z,44.74
2018-09-06T17:07:49.865Z,45.27
2018-09-06T17:10:20.609Z,46.93
2018-09-06T17:12:51.911Z,46.33
2018-09-06T17:15:23.964Z,46.75
2018-09-06T17:17:54.669Z,45.94
2018-09-06T17:20:25.520Z,47.06
2018-09-06T17:22:56.386Z,48.89
2018-09-06T17:25:27.160Z,47.30
2018-09-06T17:27:58.321Z,47.70
2018-09-06T17:30:29.176Z,48.39
2018-09-06T17:33:00.482Z,48.76
2018-09-06T17:35:31.548Z,50.59
2018-09-06T17:38:02.244Z,48.48
2018-09-06T17:40:32.993Z,48.13
2018-09-06T17:43:03.783Z,49.63
2018-09-06T17:45:34.576Z,49.23
2018-09-06T17:48:06.320Z,54.18
2018-09-06T17:50:37.319Z,51.25
2018-09-06T17:53:08.116Z,51.21
2018-09-06T17:55:38.944Z,49.37
2018-09-06T17:58:09.997Z,51.18
2018-09-06T18:00:44.957Z,52.53
2018-09-06T18:03:16.266Z,49.34
2018-09-06T18:05:47.129Z,49.94
2018-09-06T18:08:18.160Z,48.69
2018-09-06T18:10:49.012Z,51.61
2018-09-06T18:13:20.338Z,48.91
2018-09-06T18:15:52.124Z,49.11
2018-09-06T18:18:22.957Z,49.19
2018-09-06T18:20:55.384Z,49.45
2018-09-06T18:23:26.383Z,51.43
2018-09-06T18:25:57.249Z,51.61
2018-09-06T18:28:29.441Z,51.37
2018-09-06T18:31:01.542Z,52.37
2018-09-06T18:33:35.836Z,53.13
2018-09-06T18:36:19.185Z,54.51
2018-09-06T18:38:50.802Z,54.63
2018-09-06T18:41:23.300Z,54.43
2018-09-06T18:43:54.146Z,55.18
2018-09-06T18:46:27.243Z,54.42
2018-09-06T18:48:58.801Z,55.36
2018-09-06T18:51:29.604Z,55.84
2018-09-06T18:54:08.470Z,55.46
2018-09-06T18:56:40.102Z,55.39
2018-09-06T18:59:12.662Z,57.40
2018-09-06T19:01:47.243Z,56.59
2018-09-06T19:04:18.704Z,55.32
2018-09-06T19:06:50.118Z,56.34
2018-09-06T19:09:21.438Z,57.15
2018-09-06T19:11:54.783Z,57.86
2018-09-06T19:14:25.581Z,57.41
2018-09-06T19:16:56.478Z,58.20
2018-09-06T19:19:28.727Z,58.06
2018-09-06T19:21:59.657Z,57.23
2018-09-06T19:24:30.423Z,58.44
2018-09-06T19:27:10.854Z,58.01
2018-09-06T19:29:41.586Z,58.78
2018-09-06T19:32:16.364Z,59.19
2018-09-06T19:34:53.124Z,59.91
2018-09-06T19:37:24.465Z,60.03
2018-09-06T19:39:55.228Z,60.05
2018-09-06T19:42:27.490Z,59.60
2018-09-06T19:44:58.735Z,59.10
2018-09-06T19:47:34.735Z,60.00
2018-09-06T19:50:16.794Z,59.98
2018-09-06T19:52:49.908Z,61.02
2018-09-06T19:55:22.021Z,59.67
2018-09-06T19:57:53.884Z,60.28
2018-09-06T20:00:30.497Z,61.69
2018-09-06T20:03:07.359Z,60.92
2018-09-06T20:05:46.010Z,61.85
2018-09-06T20:08:27.854Z,61.95
2018-09-06T20:11:06.879Z,61.86
2018-09-06T20:13:43.131Z,62.03
2018-09-06T20:16:22.123Z,62.97
2018-09-06T20:18:58.736Z,61.78
2018-09-06T20:21:35.442Z,62.47
2018-09-06T20:24:12.009Z,63.09
2018-09-06T20:26:47.667Z,63.24
2018-09-06T20:29:23.938Z,64.03
2018-09-06T20:31:59.607Z,64.27
2018-09-06T20:34:35.848Z,65.07
2018-09-06T20:37:11.869Z,66.15
2018-09-06T20:39:47.879Z,67.89
2018-09-06T20:42:24.115Z,68.76
2018-09-06T20:45:00.637Z,69.72
2018-09-06T20:47:36.456Z,70.58
2018-09-06T20:50:12.512Z,70.68
2018-09-06T20:52:49.094Z,70.59
2018-09-06T20:55:25.772Z,70.40
2018-09-06T20:58:01.571Z,70.14
2018-09-06T21:00:37.264Z,70.27
2018-09-06T21:03:12.956Z,70.03
2018-09-06T21:05:48.972Z,68.43
2018-09-06T21:08:25.463Z,68.13
2018-09-06T21:11:01.524Z,67.56
2018-09-06T21:13:37.376Z,67.84
2018-09-06T21:16:13.837Z,68.10
2018-09-06T21:18:49.760Z,68.15
2018-09-06T21:21:25.724Z,67.81
2018-09-06T21:24:01.580Z,68.28
2018-09-06T21:26:37.485Z,68.00
2018-09-06T21:29:13.095Z,69.46
2018-09-06T21:31:48.762Z,70.59
2018-09-06T21:34:24.892Z,70.86
2018-09-06T21:37:00.783Z,69.72
2018-09-06T21:39:36.945Z,69.75
2018-09-06T21:42:13.078Z,70.32
2018-09-06T21:44:49.208Z,70.29
2018-09-06T21:47:25.105Z,70.18
2018-09-06T21:50:01.370Z,70.21
2018-09-06T21:52:37.405Z,70.22
2018-09-06T21:55:13.969Z,70.07
2018-09-06T21:57:50.025Z,70.42
2018-09-06T22:00:26.051Z,69.82
2018-09-06T22:03:07.344Z,71.60
2018-09-06T22:05:43.385Z,71.54
2018-09-06T22:08:20.151Z,72.01
2018-09-06T22:10:56.720Z,73.10
2018-09-06T22:13:32.466Z,73.68
2018-09-06T22:16:09.272Z,75.65
2018-09-06T22:18:45.370Z,76.58
2018-09-06T22:21:21.135Z,76.48
2018-09-06T22:23:56.949Z,74.97
2018-09-06T22:26:33.128Z,73.92
2018-09-06T22:29:08.816Z,73.00
2018-09-06T22:31:44.577Z,73.85
2018-09-06T22:34:20.555Z,74.00
2018-09-06T22:36:57.478Z,75.37
2018-09-06T22:39:33.498Z,75.81
2018-09-06T22:42:09.176Z,76.09
2018-09-06T22:44:45.686Z,75.60
2018-09-06T22:47:21.549Z,75.74
2018-09-06T22:49:57.322Z,76.65
2018-09-06T22:52:38.713Z,77.79
2018-09-06T22:55:14.433Z,77.05
2018-09-06T22:57:50.113Z,76.40
2018-09-06T23:00:30.209Z,77.80
2018-09-06T23:03:19.513Z,79.26
2018-09-06T23:05:55.148Z,79.15
2018-09-06T23:08:36.873Z,79.43
2018-09-06T23:11:12.486Z,78.85
2018-09-06T23:13:48.750Z,78.36
2018-09-06T23:16:33.942Z,77.54
2018-09-06T23:19:14.014Z,76.56
2018-09-06T23:21:51.805Z,76.31
2018-09-06T23:24:29.184Z,75.03
2018-09-06T23:27:05.894Z,75.87
2018-09-06T23:29:41.610Z,76.51
2018-09-06T23:32:19.654Z,75.24
2018-09-06T23:34:59.247Z,75.43
2018-09-06T23:37:41.382Z,75.71
2018-09-06T23:40:20.253Z,75.11
2018-09-06T23:42:58.867Z,74.59
2018-09-06T23:45:35.478Z,76.23
2018-09-06T23:48:12.465Z,76.65
2018-09-06T23:50:48.610Z,77.11
2018-09-06T23:53:29.767Z,78.02
2018-09-06T23:56:09.366Z,79.95
2018-09-06T23:58:45.964Z,81.18
